Time;durP1;ratioP1;P1;durP2;ratioP2;P2;SDS_P1;SDS_P2;PMS_P1;PMS_P2;Temp;Humidity;BMP_temperature;BMP_pressure;BME280_temperature;BME280_humidity;BME280_pressure;Samples;Min_cycle;Max_cycle;Signal;HPM_P1;HPM_P2
2021/10/19 00:01:36;;;;;;;;;;;4.00;99.90;;;;;;8490722;27;19903;-65
2021/10/19 00:05:36;;;;;;;;;;;4.10;99.90;;;;;;8490788;27;19948;-65
2021/10/19 00:09:37;;;;;;;;;;;4.00;99.90;;;;;;8492226;27;19913;-65
2021/10/19 00:13:38;;;;;;;;;;;3.90;99.90;;;;;;8493155;27;19911;-65
2021/10/19 00:17:43;;;;;;;;;;;4.00;99.90;;;;;;8491943;27;19926;-65
2021/10/19 00:21:44;;;;;;;;;;;4.10;99.90;;;;;;8491997;27;19903;-65
2021/10/19 00:25:44;;;;;;;;;;;4.20;99.90;;;;;;8491660;27;19997;-65
2021/10/19 00:29:45;;;;;;;;;;;4.40;99.90;;;;;;8488840;27;20450;-65
2021/10/19 00:33:45;;;;;;;;;;;4.20;99.90;;;;;;8492299;27;19903;-65
2021/10/19 00:37:46;;;;;;;;;;;4.00;99.90;;;;;;8492315;27;20409;-65
2021/10/19 00:41:47;;;;;;;;;;;4.30;99.90;;;;;;8491208;27;19959;-65
2021/10/19 00:45:47;;;;;;;;;;;3.90;99.90;;;;;;8491140;27;20454;-65
2021/10/19 00:49:49;;;;;;;;;;;3.70;99.90;;;;;;8491206;28;19908;-65
2021/10/19 00:53:50;;;;;;;;;;;3.80;99.90;;;;;;8490306;28;20279;-65
2021/10/19 00:57:51;;;;;;;;;;;3.70;99.90;;;;;;8480167;28;19912;-65
2021/10/19 01:01:51;;;;;;;;;;;3.60;99.90;;;;;;8491746;28;20392;-65
2021/10/19 01:05:51;;;;;;;;;;;3.80;99.90;;;;;;8491353;28;19922;-65
2021/10/19 01:09:52;;;;;;;;;;;3.60;99.90;;;;;;8491731;28;20185;-65
2021/10/19 01:13:53;;;;;;;;;;;3.40;99.90;;;;;;8491648;28;19907;-65
2021/10/19 01:17:53;;;;;;;;;;;3.30;99.90;;;;;;8496324;27;19935;-65
2021/10/19 01:21:55;;;;;;;;;;;3.10;99.90;;;;;;8497736;27;19907;-65
2021/10/19 01:25:56;;;;;;;;;;;3.30;99.90;;;;;;8497410;27;19910;-65
2021/10/19 01:29:56;;;;;;;;;;;3.50;99.90;;;;;;8495341;27;20387;-65
2021/10/19 01:33:57;;;;;;;;;;;3.60;99.90;;;;;;8480763;27;19915;-65
2021/10/19 01:37:57;;;;;;;;;;;3.70;99.90;;;;;;8499277;27;19907;-65
2021/10/19 01:41:58;;;;;;;;;;;3.50;99.90;;;;;;8498296;27;19907;-65
2021/10/19 01:46:00;;;;;;;;;;;3.50;99.90;;;;;;8479028;27;19939;-65
2021/10/19 01:50:00;;;;;;;;;;;3.30;99.90;;;;;;8478740;27;19907;-64
2021/10/19 01:54:01;;;;;;;;;;;3.40;99.90;;;;;;8497224;27;19940;-64
2021/10/19 01:58:01;;;;;;;;;;;3.20;99.90;;;;;;8485437;27;19904;-65
2021/10/19 02:02:02;;;;;;;;;;;3.30;99.90;;;;;;8478985;27;19994;-65
2021/10/19 02:06:02;;;;;;;;;;;3.30;99.90;;;;;;8496672;27;19907;-65
2021/10/19 02:10:03;;;;;;;;;;;3.30;99.90;;;;;;8498118;27;19915;-64
2021/10/19 02:14:04;;;;;;;;;;;3.50;99.90;;;;;;8496382;27;19948;-65
2021/10/19 02:18:05;;;;;;;;;;;3.70;99.90;;;;;;8496521;27;19904;-64
2021/10/19 02:22:05;;;;;;;;;;;3.70;99.90;;;;;;8497167;27;20324;-64
2021/10/19 02:26:06;;;;;;;;;;;3.50;99.90;;;;;;8477808;27;19948;-64
2021/10/19 02:30:07;;;;;;;;;;;3.30;99.90;;;;;;8483314;27;19911;-65
2021/10/19 02:34:08;;;;;;;;;;;3.20;99.90;;;;;;8496344;27;19903;-64
2021/10/19 02:38:08;;;;;;;;;;;3.20;99.90;;;;;;8496273;27;20454;-64
2021/10/19 02:42:09;;;;;;;;;;;3.20;99.90;;;;;;8496484;27;19946;-64
2021/10/19 02:46:09;;;;;;;;;;;2.90;99.90;;;;;;8495308;27;19908;-65
2021/10/19 02:50:10;;;;;;;;;;;2.80;99.90;;;;;;8476657;27;19907;-65
2021/10/19 02:54:11;;;;;;;;;;;2.90;99.90;;;;;;8517510;22;19953;-65
2021/10/19 02:58:11;;;;;;;;;;;3.10;99.90;;;;;;8395096;28;19919;-66
2021/10/19 03:02:12;;;;;;;;;;;3.10;99.90;;;;;;8410175;28;20351;-66
2021/10/19 03:06:12;;;;;;;;;;;3.40;99.90;;;;;;8426725;28;19998;-66
2021/10/19 03:10:14;;;;;;;;;;;3.30;99.90;;;;;;8408254;28;19998;-66
2021/10/19 03:14:15;;;;;;;;;;;3.60;99.90;;;;;;8379044;28;20292;-66
2021/10/19 03:18:15;;;;;;;;;;;3.70;99.90;;;;;;8393517;28;19919;-66
2021/10/19 03:22:16;;;;;;;;;;;3.60;99.90;;;;;;8393166;28;20049;-66
2021/10/19 03:26:16;;;;;;;;;;;3.80;99.90;;;;;;8375061;28;19905;-66
2021/10/19 03:30:17;;;;;;;;;;;3.80;99.90;;;;;;8391985;28;19904;-66
2021/10/19 03:34:17;;;;;;;;;;;3.90;99.90;;;;;;8392136;28;19943;-66
2021/10/19 03:38:18;;;;;;;;;;;4.00;99.90;;;;;;8391965;28;19928;-66
2021/10/19 03:42:18;;;;;;;;;;;4.10;99.90;;;;;;8405106;28;19911;-66
2021/10/19 03:46:19;;;;;;;;;;;4.20;99.90;;;;;;8426005;28;19904;-66
2021/10/19 03:50:19;;;;;;;;;;;3.90;99.90;;;;;;8425024;28;19906;-66
2021/10/19 03:54:20;;;;;;;;;;;3.90;99.90;;;;;;8425449;28;19908;-66
2021/10/19 03:58:20;;;;;;;;;;;4.00;99.90;;;;;;8409542;28;20315;-66
2021/10/19 04:02:21;;;;;;;;;;;4.20;99.90;;;;;;8391578;28;20291;-66
2021/10/19 04:06:21;;;;;;;;;;;4.20;99.90;;;;;;8373637;28;19904;-65
2021/10/19 04:10:23;;;;;;;;;;;4.30;99.90;;;;;;8374306;28;19948;-66
2021/10/19 04:14:23;;;;;;;;;;;4.30;99.90;;;;;;8390905;28;20391;-65
2021/10/19 04:18:24;;;;;;;;;;;4.30;99.90;;;;;;8377814;28;19912;-66
2021/10/19 04:22:24;;;;;;;;;;;4.50;99.90;;;;;;8390864;28;19920;-66
2021/10/19 04:26:25;;;;;;;;;;;4.60;99.90;;;;;;8391247;28;19905;-66
2021/10/19 04:30:25;;;;;;;;;;;4.50;99.90;;;;;;8383822;28;20387;-66
2021/10/19 04:34:26;;;;;;;;;;;4.50;99.90;;;;;;8374069;28;19931;-66
2021/10/19 04:38:26;;;;;;;;;;;4.80;99.90;;;;;;8390336;28;19904;-66
2021/10/19 04:42:29;;;;;;;;;;;4.80;99.90;;;;;;8390299;28;20287;-65
2021/10/19 04:46:30;;;;;;;;;;;4.90;99.90;;;;;;8388657;28;19908;-67
2021/10/19 04:50:31;;;;;;;;;;;5.00;99.90;;;;;;8389154;28;19908;-67
2021/10/19 04:54:31;;;;;;;;;;;4.90;99.90;;;;;;8388218;28;20002;-67
2021/10/19 04:58:32;;;;;;;;;;;5.10;99.90;;;;;;8387965;28;19953;-67
2021/10/19 05:02:33;;;;;;;;;;;5.30;99.90;;;;;;8366729;28;19912;-67
2021/10/19 05:06:33;;;;;;;;;;;5.40;99.90;;;;;;8388231;28;19909;-67
2021/10/19 05:10:34;;;;;;;;;;;5.30;99.90;;;;;;8390196;28;19908;-67
2021/10/19 05:14:34;;;;;;;;;;;5.40;99.90;;;;;;8389251;28;20004;-67
2021/10/19 05:18:35;;;;;;;;;;;5.50;99.90;;;;;;8389931;28;20311;-67
2021/10/19 05:22:35;;;;;;;;;;;5.40;99.90;;;;;;8388781;28;20449;-66
2021/10/19 05:26:36;;;;;;;;;;;5.70;99.90;;;;;;8387348;28;20299;-67
2021/10/19 05:30:36;;;;;;;;;;;5.50;99.90;;;;;;8388335;28;20074;-66
2021/10/19 05:34:37;;;;;;;;;;;5.60;99.90;;;;;;8389976;28;19954;-67
2021/10/19 05:38:37;;;;;;;;;;;5.80;99.90;;;;;;8388443;28;19904;-67
2021/10/19 05:42:38;;;;;;;;;;;5.80;99.90;;;;;;8371243;28;20003;-67
2021/10/19 05:46:38;;;;;;;;;;;6.10;99.90;;;;;;8389712;28;19957;-66
2021/10/19 05:50:39;;;;;;;;;;;6.10;99.90;;;;;;8389237;28;20283;-67
2021/10/19 05:54:39;;;;;;;;;;;5.90;99.90;;;;;;8389362;28;19912;-67
2021/10/19 05:58:40;;;;;;;;;;;6.00;99.90;;;;;;8388338;28;19950;-67
2021/10/19 06:02:40;;;;;;;;;;;6.10;99.90;;;;;;8391590;28;19919;-67
2021/10/19 06:06:41;;;;;;;;;;;6.20;99.90;;;;;;8394006;28;19924;-66
2021/10/19 06:10:41;;;;;;;;;;;6.40;99.90;;;;;;8395971;28;19904;-67
2021/10/19 06:14:42;;;;;;;;;;;6.50;99.90;;;;;;8395118;28;19996;-67
2021/10/19 06:18:42;;;;;;;;;;;6.40;99.90;;;;;;8394055;28;19912;-67
2021/10/19 06:22:42;;;;;;;;;;;6.60;99.90;;;;;;8394703;28;19940;-67
2021/10/19 06:26:43;;;;;;;;;;;6.60;99.90;;;;;;8394229;28;19912;-67
2021/10/19 06:30:44;;;;;;;;;;;6.90;99.90;;;;;;8395747;28;19904;-67
2021/10/19 06:34:44;;;;;;;;;;;7.10;99.90;;;;;;8390279;28;20100;-67
2021/10/19 06:38:45;;;;;;;;;;;7.10;99.90;;;;;;8393933;28;19954;-67
2021/10/19 06:42:45;;;;;;;;;;;7.00;99.90;;;;;;8393814;28;19935;-67
2021/10/19 06:46:46;;;;;;;;;;;7.10;99.90;;;;;;8393097;28;19951;-67
2021/10/19 06:50:47;;;;;;;;;;;7.00;99.90;;;;;;8392776;28;19915;-67
2021/10/19 06:54:47;;;;;;;;;;;7.10;99.90;;;;;;8375109;28;19944;-67
2021/10/19 06:58:47;;;;;;;;;;;7.20;99.90;;;;;;8374728;28;19908;-67
2021/10/19 07:02:48;;;;;;;;;;;7.40;99.90;;;;;;8375435;28;19908;-67
2021/10/19 07:06:48;;;;;;;;;;;7.50;99.90;;;;;;8376067;28;19912;-67
2021/10/19 07:10:49;;;;;;;;;;;7.70;99.90;;;;;;8394786;28;19904;-67
2021/10/19 07:14:49;;;;;;;;;;;7.90;99.90;;;;;;8393179;28;19904;-67
2021/10/19 07:18:50;;;;;;;;;;;8.00;99.90;;;;;;8392464;28;20066;-67
2021/10/19 07:22:50;;;;;;;;;;;8.30;99.90;;;;;;8392701;28;19908;-67
2021/10/19 07:26:51;;;;;;;;;;;8.40;99.90;;;;;;8390688;28;19956;-67
2021/10/19 07:30:51;;;;;;;;;;;8.60;99.90;;;;;;8392935;28;19910;-67
2021/10/19 07:34:52;;;;;;;;;;;8.90;99.90;;;;;;8390581;28;19904;-67
2021/10/19 07:38:53;;;;;;;;;;;9.10;99.90;;;;;;8390427;28;20523;-67
2021/10/19 07:42:55;;;;;;;;;;;9.40;99.90;;;;;;8391408;28;19908;-67
2021/10/19 07:46:56;;;;;;;;;;;9.50;99.90;;;;;;8392025;28;19909;-67
2021/10/19 07:50:56;;;;;;;;;;;9.70;99.90;;;;;;8373019;28;20375;-67
2021/10/19 07:54:57;;;;;;;;;;;10.10;99.90;;;;;;8392134;28;19919;-67
2021/10/19 07:58:58;;;;;;;;;;;10.70;99.90;;;;;;8392033;28;19922;-66
2021/10/19 08:02:58;;;;;;;;;;;11.00;99.90;;;;;;8393094;28;19947;-67
2021/10/19 08:06:59;;;;;;;;;;;11.30;99.90;;;;;;8394962;28;20259;-67
2021/10/19 08:11:00;;;;;;;;;;;11.70;99.90;;;;;;8397240;28;19918;-67
2021/10/19 08:15:01;;;;;;;;;;;11.80;99.90;;;;;;8424924;28;19918;-67
2021/10/19 08:19:02;;;;;;;;;;;11.70;99.90;;;;;;8383012;28;19909;-67
2021/10/19 08:23:03;;;;;;;;;;;11.60;99.90;;;;;;8390416;28;19978;-67
2021/10/19 08:27:03;;;;;;;;;;;11.60;99.90;;;;;;8391367;28;20003;-67
2021/10/19 08:31:03;;;;;;;;;;;11.70;99.90;;;;;;8371954;28;19913;-67
2021/10/19 08:35:05;;;;;;;;;;;11.90;99.90;;;;;;8391345;28;20426;-67
2021/10/19 08:39:05;;;;;;;;;;;12.20;99.90;;;;;;8389974;28;19935;-67
2021/10/19 08:43:06;;;;;;;;;;;12.40;99.90;;;;;;8391287;28;19927;-67
2021/10/19 08:47:07;;;;;;;;;;;12.60;99.90;;;;;;8373330;28;19909;-67
2021/10/19 08:51:08;;;;;;;;;;;12.80;99.90;;;;;;8372153;28;19908;-67
2021/10/19 08:55:09;;;;;;;;;;;12.90;99.90;;;;;;8409202;22;19973;-65
2021/10/19 08:59:10;;;;;;;;;;;12.90;99.90;;;;;;8394291;28;20530;-65
2021/10/19 09:03:11;;;;;;;;;;;13.00;99.90;;;;;;8408027;28;19915;-65
2021/10/19 09:07:11;;;;;;;;;;;13.00;99.90;;;;;;8430450;28;19911;-65
2021/10/19 09:11:12;;;;;;;;;;;13.20;99.90;;;;;;8436995;28;20049;-65
2021/10/19 09:15:13;;;;;;;;;;;13.40;99.90;;;;;;8439945;28;19911;-65
2021/10/19 09:19:14;;;;;;;;;;;13.60;99.90;;;;;;8451750;28;19919;-65
2021/10/19 09:23:18;;;;;;;;;;;13.80;99.90;;;;;;8456481;28;19998;-65
2021/10/19 09:27:18;;;;;;;;;;;14.10;99.90;;;;;;8471935;28;20287;-65
2021/10/19 09:31:18;;;;;;;;;;;14.40;99.90;;;;;;8473553;28;19961;-65
2021/10/19 09:35:20;;;;;;;;;;;14.40;99.90;;;;;;8455753;28;20385;-65
2021/10/19 09:39:28;;;;;;;;;;;14.60;99.90;;;;;;8463774;27;20358;-65
2021/10/19 09:43:32;;;;;;;;;;;14.60;99.90;;;;;;8444164;28;19907;-65
2021/10/19 09:47:37;;;;;;;;;;;14.40;99.90;;;;;;8477538;27;20306;-65
2021/10/19 09:51:38;;;;;;;;;;;14.50;99.90;;;;;;8460497;27;19910;-65
2021/10/19 09:55:39;;;;;;;;;;;14.20;99.90;;;;;;8461901;28;19912;-65
2021/10/19 09:59:39;;;;;;;;;;;14.30;99.90;;;;;;8477958;27;19994;-65
2021/10/19 10:03:40;;;;;;;;;;;14.40;99.90;;;;;;8462641;28;19904;-66
2021/10/19 10:07:43;;;;;;;;;;;14.50;99.90;;;;;;8479482;27;19921;-65
2021/10/19 10:11:43;;;;;;;;;;;14.60;99.90;;;;;;8461443;28;19904;-65
2021/10/19 10:15:44;;;;;;;;;;;14.70;99.90;;;;;;8480395;27;19903;-65
2021/10/19 10:19:44;;;;;;;;;;;15.10;99.90;;;;;;8454253;27;19903;-65
2021/10/19 10:23:46;;;;;;;;;;;14.90;99.90;;;;;;8479315;27;20345;-65
2021/10/19 10:27:46;;;;;;;;;;;14.70;99.90;;;;;;8460067;27;19954;-65
2021/10/19 10:31:48;;;;;;;;;;;14.50;99.90;;;;;;8463430;27;20291;-65
2021/10/19 10:35:49;;;;;;;;;;;14.40;99.90;;;;;;8480706;27;20002;-65
2021/10/19 10:39:49;;;;;;;;;;;14.60;99.90;;;;;;8477559;27;20375;-65
2021/10/19 10:43:57;;;;;;;;;;;15.20;99.90;;;;;;8486543;27;19908;-66
2021/10/19 10:48:00;;;;;;;;;;;15.30;99.90;;;;;;8442209;28;19915;-65
2021/10/19 10:52:02;;;;;;;;;;;14.90;99.90;;;;;;8460156;27;20342;-65
2021/10/19 10:56:03;;;;;;;;;;;15.10;99.90;;;;;;8443430;28;19998;-65
2021/10/19 11:00:04;;;;;;;;;;;14.80;99.90;;;;;;8474551;27;20414;-65
2021/10/19 11:04:06;;;;;;;;;;;14.70;99.90;;;;;;8476519;27;19904;-66
2021/10/19 11:08:07;;;;;;;;;;;14.70;99.90;;;;;;8457629;27;19912;-65
2021/10/19 11:12:07;;;;;;;;;;;14.80;99.90;;;;;;8476395;27;20302;-65
2021/10/19 11:16:08;;;;;;;;;;;14.50;99.90;;;;;;8459390;27;20007;-65
2021/10/19 11:20:08;;;;;;;;;;;14.50;99.90;;;;;;8478330;27;20400;-65
2021/10/19 11:24:09;;;;;;;;;;;14.40;99.90;;;;;;8477868;27;19907;-65
2021/10/19 11:28:10;;;;;;;;;;;14.50;99.90;;;;;;8477263;27;19930;-66
2021/10/19 11:32:14;;;;;;;;;;;14.60;99.90;;;;;;8458861;27;20382;-66
2021/10/19 11:36:15;;;;;;;;;;;14.80;99.90;;;;;;8458375;27;20431;-66
2021/10/19 11:40:16;;;;;;;;;;;15.00;99.90;;;;;;8477542;27;19911;-66
2021/10/19 11:44:17;;;;;;;;;;;15.00;99.90;;;;;;8457376;27;19998;-66
2021/10/19 11:48:17;;;;;;;;;;;15.00;99.90;;;;;;8475406;27;19915;-66
2021/10/19 11:52:18;;;;;;;;;;;15.20;99.90;;;;;;8475879;27;19911;-66
2021/10/19 11:56:19;;;;;;;;;;;15.30;99.90;;;;;;8454249;27;19919;-65
2021/10/19 12:00:21;;;;;;;;;;;15.30;99.90;;;;;;8474960;27;19937;-65
2021/10/19 12:04:25;;;;;;;;;;;15.30;99.90;;;;;;8456898;27;19903;-65
2021/10/19 12:08:30;;;;;;;;;;;15.50;99.90;;;;;;8457178;28;20409;-65
2021/10/19 12:12:30;;;;;;;;;;;15.50;99.90;;;;;;8475343;27;20280;-65
2021/10/19 12:16:31;;;;;;;;;;;15.40;99.90;;;;;;8457180;28;19911;-65
2021/10/19 12:20:33;;;;;;;;;;;15.40;99.90;;;;;;8473808;27;19903;-65
2021/10/19 12:24:35;;;;;;;;;;;15.50;99.90;;;;;;8457180;28;19904;-65
2021/10/19 12:28:35;;;;;;;;;;;15.60;99.90;;;;;;8473739;27;20002;-66
2021/10/19 12:32:36;;;;;;;;;;;15.70;99.90;;;;;;8456171;28;19908;-66
2021/10/19 12:36:37;;;;;;;;;;;15.70;99.90;;;;;;8475438;27;20275;-66
2021/10/19 12:40:44;;;;;;;;;;;15.90;99.90;;;;;;8458172;28;19907;-66
2021/10/19 12:44:46;;;;;;;;;;;15.90;99.90;;;;;;8471995;27;19926;-66
2021/10/19 12:48:46;;;;;;;;;;;16.20;99.90;;;;;;8455900;28;19911;-66
2021/10/19 12:52:47;;;;;;;;;;;16.10;99.90;;;;;;8474007;28;19930;-65
2021/10/19 12:56:47;;;;;;;;;;;16.00;99.90;;;;;;8457410;28;20355;-66
2021/10/19 13:00:48;;;;;;;;;;;15.90;99.90;;;;;;8439359;28;19907;-66
2021/10/19 13:04:48;;;;;;;;;;;15.60;99.90;;;;;;8456874;28;19911;-66
2021/10/19 13:08:49;;;;;;;;;;;15.60;99.90;;;;;;8457684;28;19914;-65
2021/10/19 13:12:50;;;;;;;;;;;15.50;99.90;;;;;;8473261;27;19907;-66
2021/10/19 13:16:50;;;;;;;;;;;15.40;99.90;;;;;;8485597;27;19903;-66
2021/10/19 13:20:51;;;;;;;;;;;15.20;99.90;;;;;;8497919;27;19948;-66
2021/10/19 13:24:52;;;;;;;;;;;15.10;99.90;;;;;;8497778;27;19915;-66
2021/10/19 13:28:53;;;;;;;;;;;15.10;99.90;;;;;;8457700;28;19930;-66
2021/10/19 13:32:53;;;;;;;;;;;15.10;99.90;;;;;;8462869;27;19908;-65
2021/10/19 13:36:54;;;;;;;;;;;15.00;99.90;;;;;;8456587;27;20341;-66
2021/10/19 13:40:55;;;;;;;;;;;15.10;99.90;;;;;;8480007;27;19989;-66
2021/10/19 13:44:55;;;;;;;;;;;15.00;99.90;;;;;;8479250;27;19908;-66
2021/10/19 13:48:56;;;;;;;;;;;15.00;99.90;;;;;;8462506;27;20283;-66
2021/10/19 13:52:56;;;;;;;;;;;15.00;99.90;;;;;;8480599;27;19916;-66
2021/10/19 13:56:57;;;;;;;;;;;14.90;99.90;;;;;;8478137;27;19926;-66
2021/10/19 14:00:57;;;;;;;;;;;14.70;99.90;;;;;;8471142;27;19929;-66
2021/10/19 14:04:58;;;;;;;;;;;14.80;99.90;;;;;;8457236;27;19910;-66
2021/10/19 14:08:58;;;;;;;;;;;14.80;99.90;;;;;;8496586;27;19911;-66
2021/10/19 14:12:59;;;;;;;;;;;14.80;99.90;;;;;;8496731;27;19903;-66
2021/10/19 14:16:59;;;;;;;;;;;14.70;99.90;;;;;;8455407;27;19903;-66
2021/10/19 14:20:59;;;;;;;;;;;14.60;99.90;;;;;;8476941;27;19911;-66
2021/10/19 14:25:00;;;;;;;;;;;14.40;99.90;;;;;;8442089;27;19904;-66
2021/10/19 14:29:00;;;;;;;;;;;14.40;99.90;;;;;;8465213;27;20453;-66
2021/10/19 14:33:01;;;;;;;;;;;14.50;99.90;;;;;;8441836;28;19907;-66
2021/10/19 14:37:01;;;;;;;;;;;14.30;99.90;;;;;;8440644;28;20171;-66
2021/10/19 14:41:03;;;;;;;;;;;14.50;99.90;;;;;;8440964;28;19903;-66
2021/10/19 14:45:03;;;;;;;;;;;14.30;99.90;;;;;;8458065;28;19964;-65
2021/10/19 14:49:07;;;;;;;;;;;14.50;99.90;;;;;;8455718;28;19951;-65
2021/10/19 14:53:08;;;;;;;;;;;14.40;99.90;;;;;;8461492;28;20163;-66
2021/10/19 14:57:08;;;;;;;;;;;14.40;99.90;;;;;;8470396;22;19979;-67
2021/10/19 15:01:08;;;;;;;;;;;14.40;99.90;;;;;;8489509;27;19914;-67
2021/10/19 15:05:09;;;;;;;;;;;14.40;99.90;;;;;;8469237;27;19957;-67
2021/10/19 15:09:12;;;;;;;;;;;14.60;99.90;;;;;;8431681;28;19919;-67
2021/10/19 15:13:13;;;;;;;;;;;14.70;99.90;;;;;;8454709;28;20002;-67
2021/10/19 15:17:13;;;;;;;;;;;14.60;99.90;;;;;;8437446;28;19915;-67
2021/10/19 15:21:14;;;;;;;;;;;14.60;99.90;;;;;;8456443;28;20404;-67
2021/10/19 15:25:14;;;;;;;;;;;14.70;99.90;;;;;;8457007;28;19961;-67
2021/10/19 15:29:15;;;;;;;;;;;14.60;99.90;;;;;;8454433;28;20081;-67
2021/10/19 15:33:15;;;;;;;;;;;14.60;99.90;;;;;;8457203;28;20298;-67
2021/10/19 15:37:16;;;;;;;;;;;14.70;99.90;;;;;;8436741;28;19915;-67
2021/10/19 15:41:16;;;;;;;;;;;14.60;99.90;;;;;;8452404;28;19915;-67
2021/10/19 15:45:17;;;;;;;;;;;14.70;99.90;;;;;;8452836;28;19915;-67
2021/10/19 15:49:18;;;;;;;;;;;14.50;99.90;;;;;;8438615;28;19911;-67
2021/10/19 15:53:18;;;;;;;;;;;14.40;99.90;;;;;;8458746;28;19914;-67
2021/10/19 15:57:19;;;;;;;;;;;14.40;99.90;;;;;;8458793;28;20087;-67
2021/10/19 16:01:19;;;;;;;;;;;14.30;99.90;;;;;;8457042;28;20018;-67
2021/10/19 16:05:19;;;;;;;;;;;14.30;99.90;;;;;;8458560;28;20379;-66
2021/10/19 16:09:20;;;;;;;;;;;14.00;99.90;;;;;;8439796;28;19907;-66
2021/10/19 16:13:21;;;;;;;;;;;13.90;99.90;;;;;;8459407;28;19911;-66
2021/10/19 16:17:21;;;;;;;;;;;13.80;99.90;;;;;;8439170;28;19961;-66
2021/10/19 16:21:22;;;;;;;;;;;13.80;99.90;;;;;;8456278;28;19907;-67
2021/10/19 16:25:22;;;;;;;;;;;13.90;99.90;;;;;;8458048;28;19907;-66
2021/10/19 16:29:23;;;;;;;;;;;13.70;99.90;;;;;;8456166;28;19912;-69
2021/10/19 16:33:23;;;;;;;;;;;13.60;99.90;;;;;;8454061;28;19907;-69
2021/10/19 16:37:24;;;;;;;;;;;13.40;99.90;;;;;;8454099;28;19916;-66
2021/10/19 16:41:24;;;;;;;;;;;13.40;99.90;;;;;;8437856;28;19919;-66
2021/10/19 16:45:25;;;;;;;;;;;13.40;99.90;;;;;;8456287;28;19922;-66
2021/10/19 16:49:29;;;;;;;;;;;13.50;99.90;;;;;;8453252;28;19923;-67
2021/10/19 16:53:29;;;;;;;;;;;13.30;99.90;;;;;;8456714;28;20007;-66
2021/10/19 16:57:30;;;;;;;;;;;13.30;99.90;;;;;;8455728;28;19911;-66
2021/10/19 17:01:31;;;;;;;;;;;13.40;99.90;;;;;;8456874;28;19904;-66
2021/10/19 17:05:31;;;;;;;;;;;13.20;99.90;;;;;;8438672;28;19907;-66
2021/10/19 17:09:32;;;;;;;;;;;13.10;99.90;;;;;;8456580;28;19912;-66
2021/10/19 17:13:32;;;;;;;;;;;13.00;99.90;;;;;;8438865;28;19939;-66
2021/10/19 17:17:33;;;;;;;;;;;13.10;99.90;;;;;;8456525;28;19964;-66
2021/10/19 17:21:35;;;;;;;;;;;13.10;99.90;;;;;;8456892;28;19908;-66
2021/10/19 17:25:36;;;;;;;;;;;13.20;99.90;;;;;;8457392;28;19907;-66
2021/10/19 17:29:38;;;;;;;;;;;13.10;99.90;;;;;;8456726;28;20337;-66
2021/10/19 17:33:39;;;;;;;;;;;13.30;99.90;;;;;;8456297;28;19903;-66
2021/10/19 17:37:41;;;;;;;;;;;13.50;99.90;;;;;;8457342;28;20425;-66
2021/10/19 17:41:42;;;;;;;;;;;13.70;99.90;;;;;;8458309;28;20319;-66
2021/10/19 17:45:42;;;;;;;;;;;13.50;99.90;;;;;;8458495;28;19953;-66
2021/10/19 17:49:43;;;;;;;;;;;13.00;99.90;;;;;;8458051;28;20313;-66
2021/10/19 17:53:43;;;;;;;;;;;12.80;99.90;;;;;;8457680;28;19904;-66
2021/10/19 17:57:44;;;;;;;;;;;12.50;99.90;;;;;;8457356;28;19965;-66
2021/10/19 18:01:44;;;;;;;;;;;12.20;99.90;;;;;;8461319;28;19915;-66
2021/10/19 18:05:45;;;;;;;;;;;12.00;99.90;;;;;;8462377;28;19912;-66
2021/10/19 18:09:46;;;;;;;;;;;11.70;99.90;;;;;;8462535;28;19914;-66
2021/10/19 18:13:47;;;;;;;;;;;11.60;99.90;;;;;;8445020;28;19907;-66
2021/10/19 18:17:48;;;;;;;;;;;11.60;99.90;;;;;;8462141;28;19910;-66
2021/10/19 18:21:48;;;;;;;;;;;11.50;99.90;;;;;;8462915;28;19951;-66
2021/10/19 18:25:49;;;;;;;;;;;11.50;99.90;;;;;;8461698;28;20596;-66
2021/10/19 18:29:49;;;;;;;;;;;11.40;99.90;;;;;;8443327;28;20472;-66
2021/10/19 18:33:54;;;;;;;;;;;11.50;99.90;;;;;;8443248;28;19903;-66
2021/10/19 18:37:54;;;;;;;;;;;11.90;99.90;;;;;;8461170;28;20319;-66
2021/10/19 18:41:55;;;;;;;;;;;11.80;99.90;;;;;;8461704;28;19943;-66
2021/10/19 18:45:55;;;;;;;;;;;11.40;99.90;;;;;;8461300;28;20495;-66
2021/10/19 18:49:56;;;;;;;;;;;11.10;99.90;;;;;;8461685;28;19915;-66
2021/10/19 18:53:56;;;;;;;;;;;11.20;99.90;;;;;;8460160;28;20649;-66
2021/10/19 18:57:57;;;;;;;;;;;10.90;99.90;;;;;;8443836;28;19919;-66
2021/10/19 19:01:57;;;;;;;;;;;10.70;99.90;;;;;;8461781;28;19915;-65
2021/10/19 19:05:57;;;;;;;;;;;10.80;99.90;;;;;;8461137;28;19922;-66
2021/10/19 19:09:58;;;;;;;;;;;10.70;99.90;;;;;;8459791;28;19964;-66
2021/10/19 19:14:03;;;;;;;;;;;10.60;99.90;;;;;;8459178;28;19908;-65
2021/10/19 19:18:04;;;;;;;;;;;10.30;99.90;;;;;;8459677;28;19911;-66
2021/10/19 19:22:04;;;;;;;;;;;10.00;99.90;;;;;;8441107;28;19903;-66
2021/10/19 19:26:04;;;;;;;;;;;9.90;99.90;;;;;;8442067;28;19907;-66
2021/10/19 19:30:05;;;;;;;;;;;9.70;99.90;;;;;;8457941;28;20000;-66
2021/10/19 19:34:06;;;;;;;;;;;9.60;99.90;;;;;;8439530;28;19908;-66
2021/10/19 19:38:07;;;;;;;;;;;9.40;99.90;;;;;;8459214;28;20606;-66
2021/10/19 19:42:07;;;;;;;;;;;9.40;99.90;;;;;;8454460;28;19991;-66
2021/10/19 19:46:08;;;;;;;;;;;9.30;99.90;;;;;;8456227;28;20346;-66
2021/10/19 19:50:10;;;;;;;;;;;9.40;99.90;;;;;;8458397;28;20298;-66
2021/10/19 19:54:11;;;;;;;;;;;9.20;99.90;;;;;;8441452;28;19904;-66
2021/10/19 19:58:12;;;;;;;;;;;9.00;99.90;;;;;;8456998;28;19919;-66
2021/10/19 20:02:14;;;;;;;;;;;8.90;99.90;;;;;;8456726;28;19908;-65
2021/10/19 20:06:15;;;;;;;;;;;9.10;99.90;;;;;;8457797;28;19916;-65
2021/10/19 20:10:17;;;;;;;;;;;9.10;99.90;;;;;;8458135;28;19907;-65
2021/10/19 20:14:17;;;;;;;;;;;9.10;99.90;;;;;;8458228;28;20405;-65
2021/10/19 20:18:18;;;;;;;;;;;9.30;99.90;;;;;;8456470;28;19969;-65
2021/10/19 20:22:19;;;;;;;;;;;9.10;99.90;;;;;;8435961;28;19943;-66
2021/10/19 20:26:19;;;;;;;;;;;9.20;99.90;;;;;;8437110;28;19908;-66
2021/10/19 20:30:20;;;;;;;;;;;8.90;99.90;;;;;;8455113;28;19912;-66
2021/10/19 20:34:20;;;;;;;;;;;8.80;99.90;;;;;;8455736;28;19908;-66
2021/10/19 20:38:21;;;;;;;;;;;8.70;99.90;;;;;;8438278;28;20155;-65
2021/10/19 20:42:21;;;;;;;;;;;8.80;99.90;;;;;;8439348;28;20231;-66
2021/10/19 20:46:22;;;;;;;;;;;8.70;99.90;;;;;;8457038;28;19915;-66
2021/10/19 20:50:23;;;;;;;;;;;8.60;99.90;;;;;;8440275;28;20314;-66
2021/10/19 20:54:24;;;;;;;;;;;8.40;99.90;;;;;;8458938;28;20002;-66
2021/10/19 20:58:24;;;;;;;;;;;8.20;99.90;;;;;;8456611;28;19915;-66
2021/10/19 21:02:25;;;;;;;;;;;8.50;99.90;;;;;;8440321;28;19930;-66
2021/10/19 21:06:25;;;;;;;;;;;8.70;99.90;;;;;;8457639;28;19904;-66
2021/10/19 21:10:26;;;;;;;;;;;8.40;99.90;;;;;;8456810;28;19915;-66
2021/10/19 21:14:27;;;;;;;;;;;8.30;99.90;;;;;;8456749;28;19943;-66
2021/10/19 21:18:27;;;;;;;;;;;8.50;99.90;;;;;;8458346;28;19969;-66
2021/10/19 21:22:28;;;;;;;;;;;8.40;99.90;;;;;;8458117;28;19911;-66
2021/10/19 21:26:29;;;;;;;;;;;8.20;99.90;;;;;;8437881;28;19946;-66
2021/10/19 21:30:29;;;;;;;;;;;8.10;99.90;;;;;;8458158;28;19907;-66
2021/10/19 21:34:30;;;;;;;;;;;8.10;99.90;;;;;;8460964;28;19904;-66
2021/10/19 21:38:30;;;;;;;;;;;7.80;99.90;;;;;;8446112;28;19939;-66
2021/10/19 21:42:31;;;;;;;;;;;7.70;99.90;;;;;;8463764;28;19929;-66
2021/10/19 21:46:31;;;;;;;;;;;7.60;99.90;;;;;;8463394;28;20303;-66
2021/10/19 21:50:33;;;;;;;;;;;7.50;99.90;;;;;;8444430;28;19934;-66
2021/10/19 21:54:33;;;;;;;;;;;7.50;99.90;;;;;;8444246;28;19911;-66
2021/10/19 21:58:34;;;;;;;;;;;7.60;99.90;;;;;;8462163;28;19911;-65
2021/10/19 22:02:34;;;;;;;;;;;7.60;99.90;;;;;;8463433;28;20291;-66
2021/10/19 22:06:35;;;;;;;;;;;7.50;99.90;;;;;;8445051;28;19969;-66
2021/10/19 22:10:37;;;;;;;;;;;7.30;99.90;;;;;;8444607;28;20248;-66
2021/10/19 22:14:37;;;;;;;;;;;7.30;99.90;;;;;;8462510;28;19904;-66
2021/10/19 22:18:38;;;;;;;;;;;7.40;99.90;;;;;;8461723;28;20293;-66
2021/10/19 22:22:38;;;;;;;;;;;7.60;99.90;;;;;;8443890;28;19907;-66
2021/10/19 22:26:39;;;;;;;;;;;7.50;99.90;;;;;;8463184;28;19904;-66
2021/10/19 22:30:41;;;;;;;;;;;7.30;99.90;;;;;;8462153;28;20397;-66
2021/10/19 22:34:42;;;;;;;;;;;7.20;99.90;;;;;;8452333;28;19904;-66
2021/10/19 22:38:42;;;;;;;;;;;7.20;99.90;;;;;;8455189;28;19930;-66
2021/10/19 22:42:43;;;;;;;;;;;7.30;99.90;;;;;;8463075;28;19994;-66
2021/10/19 22:46:43;;;;;;;;;;;7.20;99.90;;;;;;8463020;28;20343;-66
2021/10/19 22:50:44;;;;;;;;;;;7.30;99.90;;;;;;8444723;28;19918;-66
2021/10/19 22:54:44;;;;;;;;;;;7.40;99.90;;;;;;8463396;28;19903;-66
2021/10/19 22:58:45;;;;;;;;;;;7.40;99.90;;;;;;8462902;28;19923;-66
2021/10/19 23:02:45;;;;;;;;;;;7.30;99.90;;;;;;8462539;28;19914;-66
2021/10/19 23:06:46;;;;;;;;;;;7.10;99.90;;;;;;8462600;28;19957;-66
2021/10/19 23:10:48;;;;;;;;;;;6.90;99.90;;;;;;8462165;28;19915;-66
2021/10/19 23:14:48;;;;;;;;;;;6.80;99.90;;;;;;8462424;28;20365;-66
2021/10/19 23:18:49;;;;;;;;;;;7.00;99.90;;;;;;8461574;28;19911;-66
2021/10/19 23:22:49;;;;;;;;;;;7.00;99.90;;;;;;8462061;28;19904;-66
2021/10/19 23:26:50;;;;;;;;;;;6.80;99.90;;;;;;8461802;28;19957;-66
2021/10/19 23:30:51;;;;;;;;;;;6.90;99.90;;;;;;8443679;28;20321;-66